Time;durP1;ratioP1;P1;durP2;ratioP2;P2;SDS_P1;SDS_P2;PMS_P1;PMS_P2;Temp;Humidity;BMP_temperature;BMP_pressure;BME280_temperature;BME280_humidity;BME280_pressure;Samples;Min_cycle;Max_cycle;Signal;HPM_P1;HPM_P2
2021/06/23 00:00:37;;;;;;;;;;;;;;;11.70;100.00;101048.88;4992336;28;19942;-72
2021/06/23 00:03:03;;;;;;;;;;;;;;;11.67;100.00;101070.88;4991384;28;19926;-72
2021/06/23 00:05:30;;;;;;;;;;;;;;;11.66;100.00;101084.59;4991785;28;19929;-72
2021/06/23 00:07:56;;;;;;;;;;;;;;;11.62;100.00;101067.66;4992012;28;19996;-72
2021/06/23 00:10:22;;;;;;;;;;;;;;;11.60;100.00;101064.19;4992074;28;19953;-72
2021/06/23 00:12:50;;;;;;;;;;;;;;;11.55;100.00;101061.84;4991518;28;19932;-72
2021/06/23 00:15:18;;;;;;;;;;;;;;;11.49;100.00;101058.75;4991951;28;20313;-72
2021/06/23 00:17:47;;;;;;;;;;;;;;;11.47;100.00;101066.19;4991893;28;19925;-72
2021/06/23 00:20:14;;;;;;;;;;;;;;;11.43;100.00;101051.09;4991947;28;20305;-72
2021/06/23 00:22:41;;;;;;;;;;;;;;;11.39;100.00;101045.88;4991919;28;19929;-72
2021/06/23 00:25:07;;;;;;;;;;;;;;;11.34;100.00;101042.69;4992092;28;20223;-72
2021/06/23 00:27:34;;;;;;;;;;;;;;;11.35;100.00;101049.84;4991774;28;19926;-72
2021/06/23 00:30:00;;;;;;;;;;;;;;;11.41;100.00;101061.22;4991728;28;19929;-72
2021/06/23 00:32:28;;;;;;;;;;;;;;;11.39;100.00;101053.19;4991326;28;19984;-72
2021/06/23 00:34:54;;;;;;;;;;;;;;;11.34;100.00;101049.97;4991621;28;19930;-72
2021/06/23 00:37:20;;;;;;;;;;;;;;;11.29;100.00;101049.47;4991629;28;20400;-72
2021/06/23 00:39:47;;;;;;;;;;;;;;;11.26;100.00;101049.72;5006625;28;19926;-71
2021/06/23 00:42:13;;;;;;;;;;;;;;;11.22;100.00;101044.53;4990424;28;19926;-71
2021/06/23 00:44:40;;;;;;;;;;;;;;;11.19;100.00;101039.31;4991785;28;19930;-71
2021/06/23 00:47:07;;;;;;;;;;;;;;;11.17;100.00;101046.75;4991588;28;19961;-72
2021/06/23 00:49:36;;;;;;;;;;;;;;;11.23;100.00;101053.53;4990396;28;19932;-71
2021/06/23 00:52:38;;;;;;;;;;;;;;;11.14;100.00;101055.09;4991290;28;20031;-72
2021/06/23 00:55:21;;;;;;;;;;;;;;;11.12;100.00;101067.13;4991241;28;19925;-71
2021/06/23 00:57:49;;;;;;;;;;;;;;;11.09;100.00;101061.91;4991571;28;19980;-72
2021/06/23 01:00:17;;;;;;;;;;;;;;;11.04;100.00;101060.41;4991704;28;20020;-71
2021/06/23 01:02:44;;;;;;;;;;;;;;;11.04;100.00;101063.13;4990141;28;19930;-72
2021/06/23 01:05:13;;;;;;;;;;;;;;;11.01;100.00;101065.19;4991623;28;20027;-71
2021/06/23 01:07:40;;;;;;;;;;;;;;;11.00;100.00;101058.06;4991487;28;19930;-71
2021/06/23 01:10:06;;;;;;;;;;;;;;;10.99;100.00;101064.47;4989853;28;20239;-71
2021/06/23 01:12:45;;;;;;;;;;;;;;;10.98;100.00;101062.75;4990151;28;19926;-71
2021/06/23 01:15:13;;;;;;;;;;;;;;;11.04;100.00;101074.00;4990962;28;19933;-72
2021/06/23 01:17:40;;;;;;;;;;;;;;;11.13;100.00;101083.28;4994013;28;19987;-71
2021/06/23 01:20:08;;;;;;;;;;;;;;;11.05;100.00;101075.72;4993741;28;20447;-71
2021/06/23 01:22:40;;;;;;;;;;;;;;;11.07;100.00;101072.88;4994924;28;19952;-72
2021/06/23 01:25:09;;;;;;;;;;;;;;;11.05;100.00;101069.44;4993723;28;20021;-71
2021/06/23 01:27:36;;;;;;;;;;;;;;;11.00;100.00;101079.78;4994578;28;19988;-72
2021/06/23 01:30:03;;;;;;;;;;;;;;;10.95;100.00;101096.44;4994683;28;19937;-71
2021/06/23 01:32:43;;;;;;;;;;;;;;;10.89;100.00;101096.94;5009779;28;19961;-71
2021/06/23 01:35:10;;;;;;;;;;;;;;;10.85;100.00;101087.25;4993613;28;19930;-72
2021/06/23 01:37:38;;;;;;;;;;;;;;;10.85;100.00;101085.41;4994383;28;19935;-71
2021/06/23 01:40:06;;;;;;;;;;;;;;;10.85;100.00;101090.84;4993367;28;19988;-71
2021/06/23 01:42:34;;;;;;;;;;;;;;;10.81;100.00;101100.22;4993181;28;19926;-72
2021/06/23 01:45:01;;;;;;;;;;;;;;;10.84;100.00;101113.56;4994454;28;20240;-72
2021/06/23 01:47:28;;;;;;;;;;;;;;;10.86;100.00;101127.91;4993421;28;19926;-71
2021/06/23 01:50:11;;;;;;;;;;;;;;;10.90;100.00;101142.09;4994413;28;19933;-72
2021/06/23 01:52:50;;;;;;;;;;;;;;;10.90;100.00;101125.78;4993029;28;19956;-72
2021/06/23 01:55:28;;;;;;;;;;;;;;;10.89;100.00;101108.66;4994238;28;19936;-72
2021/06/23 01:57:59;;;;;;;;;;;;;;;10.89;100.00;101100.50;4994375;28;19926;-72
2021/06/23 02:00:30;;;;;;;;;;;;;;;10.88;100.00;101103.34;4993187;28;20317;-72
2021/06/23 02:03:02;;;;;;;;;;;;;;;10.84;100.00;101104.56;4993797;28;20032;-71
2021/06/23 02:05:40;;;;;;;;;;;;;;;10.82;100.00;101112.81;4992647;28;19932;-71
2021/06/23 02:08:12;;;;;;;;;;;;;;;10.81;100.00;101115.63;4993939;28;19972;-72
2021/06/23 02:10:56;;;;;;;;;;;;;;;10.75;100.00;101111.53;4992906;28;19926;-73
2021/06/23 02:13:57;;;;;;;;;;;;;;;10.70;100.00;101113.72;4992903;28;19926;-72
2021/06/23 02:16:56;;;;;;;;;;;;;;;10.70;100.00;101130.03;4981767;28;19973;-72
2021/06/23 02:19:26;;;;;;;;;;;;;;;10.76;100.00;101134.16;4992651;28;19957;-72
2021/06/23 02:22:12;;;;;;;;;;;;;;;10.79;100.00;101139.34;4993717;28;19926;-72
2021/06/23 02:24:44;;;;;;;;;;;;;;;10.77;100.00;101134.03;5009148;28;20040;-72
2021/06/23 02:27:23;;;;;;;;;;;;;;;10.77;100.00;101146.72;4992276;28;19925;-72
2021/06/23 02:29:53;;;;;;;;;;;;;;;10.79;100.00;101145.63;4992544;28;19945;-72
2021/06/23 02:32:23;;;;;;;;;;;;;;;10.85;100.00;101145.16;4992477;28;19932;-72
2021/06/23 02:34:54;;;;;;;;;;;;;;;10.91;100.00;101154.69;5008653;28;19934;-72
2021/06/23 02:37:29;;;;;;;;;;;;;;;10.98;100.00;101155.97;4992349;28;20025;-72
2021/06/23 02:39:58;;;;;;;;;;;;;;;11.12;100.00;101163.06;5008747;28;19926;-72
2021/06/23 02:42:25;;;;;;;;;;;;;;;11.28;100.00;101151.03;5008628;28;19973;-72
2021/06/23 02:44:53;;;;;;;;;;;;;;;11.41;100.00;101142.75;4992268;28;19926;-72
2021/06/23 02:47:20;;;;;;;;;;;;;;;11.52;100.00;101148.25;4992199;28;20017;-72
2021/06/23 02:50:01;;;;;;;;;;;;;;;11.53;100.00;101142.66;4992255;28;20408;-72
2021/06/23 02:52:27;;;;;;;;;;;;;;;11.56;100.00;101138.84;4993408;28;20297;-72
2021/06/23 02:54:54;;;;;;;;;;;;;;;11.54;100.00;101138.97;4991675;28;20013;-72
2021/06/23 02:57:30;;;;;;;;;;;;;;;11.53;100.00;101139.06;4991992;28;20012;-72
2021/06/23 02:59:59;;;;;;;;;;;;;;;11.51;100.00;101132.91;4992034;28;19926;-72
2021/06/23 03:02:25;;;;;;;;;;;;;;;11.50;100.00;101142.03;4993126;28;20316;-72
2021/06/23 03:04:52;;;;;;;;;;;;;;;11.50;100.00;101151.03;5008130;28;19963;-72
2021/06/23 03:07:23;;;;;;;;;;;;;;;11.55;100.00;101147.97;5008134;28;19926;-72
2021/06/23 03:10:02;;;;;;;;;;;;;;;11.63;100.00;101156.41;4993023;28;19930;-72
2021/06/23 03:13:02;;;;;;;;;;;;;;;11.76;100.00;101150.88;4985660;28;20021;-71
2021/06/23 03:15:55;;;;;;;;;;;;;;;11.81;100.00;101153.19;4992669;28;20297;-72
2021/06/23 03:18:32;;;;;;;;;;;;;;;11.85;100.00;101154.69;4991841;28;19926;-72
2021/06/23 03:20:59;;;;;;;;;;;;;;;11.91;100.00;101151.50;4991513;28;20024;-72
2021/06/23 03:23:25;;;;;;;;;;;;;;;11.97;100.00;101147.44;4992673;28;19980;-72
2021/06/23 03:25:52;;;;;;;;;;;;;;;12.06;100.00;101146.69;4991232;28;20401;-72
2021/06/23 03:28:20;;;;;;;;;;;;;;;12.13;100.00;101137.06;4991575;28;19933;-72
2021/06/23 03:30:53;;;;;;;;;;;;;;;12.27;100.00;101135.06;4992487;28;19936;-71
2021/06/23 03:33:19;;;;;;;;;;;;;;;12.32;100.00;101135.53;4991263;28;19933;-72
2021/06/23 03:36:08;;;;;;;;;;;;;;;12.41;100.00;101144.81;4990953;28;20011;-72
2021/06/23 03:38:35;;;;;;;;;;;;;;;12.47;100.00;101153.34;5007001;28;19933;-72
2021/06/23 03:41:02;;;;;;;;;;;;;;;12.53;100.00;101162.84;4991169;28;20546;-72
2021/06/23 03:43:29;;;;;;;;;;;;;;;12.59;100.00;101167.78;5007266;28;20363;-72
2021/06/23 03:45:57;;;;;;;;;;;;;;;12.66;100.00;101176.31;5007442;28;19936;-72
2021/06/23 03:48:24;;;;;;;;;;;;;;;12.70;100.00;101175.06;4991032;28;20409;-72
2021/06/23 03:51:01;;;;;;;;;;;;;;;12.73;100.00;101177.53;4992095;28;19925;-71
2021/06/23 03:53:27;;;;;;;;;;;;;;;12.79;100.00;101185.19;4992225;28;19926;-72
2021/06/23 03:55:54;;;;;;;;;;;;;;;12.79;100.00;101185.19;4990743;28;19929;-73
2021/06/23 03:58:26;;;;;;;;;;;;;;;12.78;100.00;101188.91;4991129;28;20241;-72
2021/06/23 04:00:53;;;;;;;;;;;;;;;12.77;100.00;101189.91;4992072;28;20024;-72
2021/06/23 04:03:38;;;;;;;;;;;;;;;12.72;100.00;101186.72;4992193;28;20028;-71
2021/06/23 04:06:31;;;;;;;;;;;;;;;12.69;100.00;101186.94;4990286;28;20454;-71
2021/06/23 04:09:00;;;;;;;;;;;;;;;12.67;100.00;101188.94;4990684;28;19926;-71
2021/06/23 04:11:27;;;;;;;;;;;;;;;12.62;100.00;101194.75;4992186;28;19973;-71
2021/06/23 04:13:55;;;;;;;;;;;;;;;12.60;100.00;101198.59;4990714;28;19926;-71
2021/06/23 04:16:23;;;;;;;;;;;;;;;12.63;100.00;101198.38;4990585;28;20028;-71
2021/06/23 04:18:49;;;;;;;;;;;;;;;12.67;100.00;101188.94;4991878;28;19968;-71
2021/06/23 04:21:16;;;;;;;;;;;;;;;12.73;100.00;101196.59;4990844;28;19980;-71
2021/06/23 04:23:44;;;;;;;;;;;;;;;12.85;100.00;101198.31;4990328;28;19926;-72
2021/06/23 04:26:11;;;;;;;;;;;;;;;12.99;100.00;101193.56;4991617;28;19972;-72
2021/06/23 04:28:38;;;;;;;;;;;;;;;13.16;100.00;101201.19;4990697;28;19932;-72
2021/06/23 04:31:06;;;;;;;;;;;;;;;13.31;100.00;101198.13;4990550;28;20012;-71
2021/06/23 04:33:34;;;;;;;;;;;;;;;13.49;100.00;101201.19;4991652;28;19936;-72
2021/06/23 04:36:07;;;;;;;;;;;;;;;13.67;100.00;101193.25;4990097;28;19926;-71
2021/06/23 04:38:34;;;;;;;;;;;;;;;13.88;100.00;101205.03;4990503;28;19929;-76
2021/06/23 04:41:01;;;;;;;;;;;;;;;14.08;100.00;101196.94;4990377;28;19926;-74
2021/06/23 04:43:31;;;;;;;;;;;;;;;14.32;100.00;101195.75;4990381;28;19925;-75
2021/06/23 04:45:58;;;;;;;;;;;;;;;14.57;100.00;101197.13;4991348;28;19932;-75
2021/06/23 04:48:24;;;;;;;;;;;;;;;14.76;100.00;101188.16;5007048;28;20278;-75
2021/06/23 04:50:55;;;;;;;;;;;;;;;15.03;100.00;101190.22;5002254;28;20416;-75
2021/06/23 04:53:26;;;;;;;;;;;;;;;15.22;100.00;101183.88;5015175;28;19957;-75
2021/06/23 04:55:53;;;;;;;;;;;;;;;15.45;100.00;101193.69;5006675;28;20367;-75
2021/06/23 04:58:20;;;;;;;;;;;;;;;15.66;100.00;101193.47;5001990;28;19933;-74
2021/06/23 05:00:58;;;;;;;;;;;;;;;15.91;100.00;101192.03;5007460;28;19929;-74
2021/06/23 05:03:33;;;;;;;;;;;;;;;16.02;100.00;101180.91;5009267;28;20877;-75
2021/06/23 05:06:01;;;;;;;;;;;;;;;16.18;100.00;101183.00;4992742;28;19926;-75
2021/06/23 05:08:28;;;;;;;;;;;;;;;16.47;100.00;101186.63;4976193;28;19926;-75
2021/06/23 05:10:55;;;;;;;;;;;;;;;16.66;100.00;101182.91;4991494;28;19926;-75
2021/06/23 05:13:21;;;;;;;;;;;;;;;16.86;100.00;101168.06;4978028;28;19973;-76
2021/06/23 05:15:48;;;;;;;;;;;;;;;17.02;100.00;101180.25;4974586;28;19930;-75
2021/06/23 05:18:14;;;;;;;;;;;;;;;17.21;100.00;101184.69;4993738;28;19937;-76
2021/06/23 05:20:41;;;;;;;;;;;;;;;17.34;100.00;101176.06;4990139;28;19926;-75
2021/06/23 05:23:09;;;;;;;;;;;;;;;17.47;100.00;101179.28;4981612;28;21084;-76
2021/06/23 05:25:35;;;;;;;;;;;;;;;17.60;100.00;101172.50;4985116;28;20409;-76
2021/06/23 05:28:02;;;;;;;;;;;;;;;17.76;100.00;101166.28;4975582;28;20448;-76
2021/06/23 05:30:28;;;;;;;;;;;;;;;18.05;100.00;101169.59;4976267;28;19930;-76
2021/06/23 05:32:54;;;;;;;;;;;;;;;18.19;100.00;101176.34;4973874;28;20365;-76
2021/06/23 05:35:21;;;;;;;;;;;;;;;18.19;100.00;101176.34;4977803;28;19926;-76
2021/06/23 05:37:48;;;;;;;;;;;;;;;18.24;100.00;101173.13;4994759;28;20373;-76
2021/06/23 05:40:16;;;;;;;;;;;;;;;18.22;100.00;101178.75;5001736;28;19933;-76
2021/06/23 05:42:42;;;;;;;;;;;;;;;18.27;100.00;101178.28;4990196;28;19981;-76
2021/06/23 05:45:09;;;;;;;;;;;;;;;18.18;100.00;101177.38;4999704;28;19987;-77
2021/06/23 05:47:36;;;;;;;;;;;;;;;18.16;100.00;101173.06;5002155;28;19979;-75
2021/06/23 05:50:03;;;;;;;;;;;;;;;18.27;100.00;101180.19;4992159;28;19964;-76
2021/06/23 05:52:29;;;;;;;;;;;;;;;18.33;100.00;101179.50;4987294;28;19925;-75
2021/06/23 05:54:56;;;;;;;;;;;;;;;18.45;100.00;101182.81;4987564;28;19930;-76
2021/06/23 05:57:23;;;;;;;;;;;;;;;18.71;100.00;101188.25;4980267;28;19980;-76
2021/06/23 05:59:49;;;;;;;;;;;;;;;19.09;100.00;101194.22;4990064;28;19926;-76
2021/06/23 06:02:16;;;;;;;;;;;;;;;19.07;100.00;101196.28;4992731;28;20453;-75
2021/06/23 06:04:42;;;;;;;;;;;;;;;19.01;100.00;101200.59;4994565;28;19926;-75
2021/06/23 06:07:08;;;;;;;;;;;;;;;19.13;100.00;101198.34;4986134;28;19937;-75
2021/06/23 06:09:35;;;;;;;;;;;;;;;18.93;100.00;101197.78;4977192;28;20270;-76
2021/06/23 06:12:01;;;;;;;;;;;;;;;19.07;100.00;101197.13;4985205;28;20346;-76
2021/06/23 06:14:29;;;;;;;;;;;;;;;19.35;100.00;101207.00;4992853;28;19965;-75
2021/06/23 06:16:55;;;;;;;;;;;;;;;19.48;100.00;101201.84;4987454;28;20366;-75
2021/06/23 06:19:22;;;;;;;;;;;;;;;19.49;100.00;101205.44;4993821;28;20283;-75
2021/06/23 06:21:48;;;;;;;;;;;;;;;19.76;100.00;101212.47;4975807;28;19933;-76
2021/06/23 06:24:15;;;;;;;;;;;;;;;19.86;100.00;101215.94;4974268;28;19930;-76
2021/06/23 06:26:41;;;;;;;;;;;;;;;20.02;100.00;101219.72;4991870;28;19948;-75
2021/06/23 06:29:07;;;;;;;;;;;;;;;20.10;100.00;101216.09;4992080;28;19930;-76
2021/06/23 06:31:35;;;;;;;;;;;;;;;20.23;100.00;101216.41;4993279;28;20356;-76
2021/06/23 06:34:01;;;;;;;;;;;;;;;20.31;100.00;101215.50;4992057;28;19948;-76
2021/06/23 06:36:28;;;;;;;;;;;;;;;20.16;100.00;101216.25;4993520;28;19941;-78
2021/06/23 06:38:54;;;;;;;;;;;;;;;20.33;100.00;101218.94;4976800;28;20397;-75
2021/06/23 06:41:20;;;;;;;;;;;;;;;20.17;100.00;101223.47;4974115;28;19926;-76
2021/06/23 06:43:47;;;;;;;;;;;;;;;20.37;100.00;101217.56;4974229;28;19926;-76
2021/06/23 06:46:13;;;;;;;;;;;;;;;20.55;100.00;101229.22;4972659;28;19980;-76
2021/06/23 06:48:41;;;;;;;;;;;;;;;20.92;100.00;101231.50;4987460;28;19929;-76
2021/06/23 06:51:07;;;;;;;;;;;;;;;21.05;100.00;101229.84;4993629;28;19980;-75
2021/06/23 06:53:33;;;;;;;;;;;;;;;21.34;100.00;101231.03;4979733;28;19930;-75
2021/06/23 06:56:00;;;;;;;;;;;;;;;21.71;100.00;101240.47;4975951;28;19926;-75
2021/06/23 06:58:26;;;;;;;;;;;;;;;21.95;100.00;101238.50;4973706;28;19933;-72
2021/06/23 07:00:52;;;;;;;;;;;;;;;22.37;100.00;101236.22;4983214;28;19930;-72
2021/06/23 07:03:18;;;;;;;;;;;;;;;22.41;100.00;101232.03;5007361;28;19925;-72
2021/06/23 07:05:46;;;;;;;;;;;;;;;22.52;100.00;101236.22;4993169;28;19968;-72
2021/06/23 07:08:12;;;;;;;;;;;;;;;22.65;100.00;101241.03;4992365;28;20000;-72
2021/06/23 07:10:39;;;;;;;;;;;;;;;22.95;100.00;101232.72;4992903;28;20297;-72
2021/06/23 07:13:05;;;;;;;;;;;;;;;23.22;100.00;101233.91;4979281;28;19941;-72
2021/06/23 07:15:31;;;;;;;;;;;;;;;23.54;100.00;101232.53;4993716;28;19930;-72
2021/06/23 07:17:59;;;;;;;;;;;;;;;23.11;99.46;101237.16;4996525;28;19977;-72
2021/06/23 07:20:25;;;;;;;;;;;;;;;23.10;100.00;101236.28;4984416;28;19926;-73
2021/06/23 07:22:53;;;;;;;;;;;;;;;22.82;100.00;101230.63;4975741;28;19926;-73
2021/06/23 07:25:19;;;;;;;;;;;;;;;23.09;100.00;101226.28;4989963;28;19964;-72
2021/06/23 07:27:45;;;;;;;;;;;;;;;23.57;100.00;101226.59;4978971;28;19985;-72
2021/06/23 07:30:12;;;;;;;;;;;;;;;24.15;93.96;101222.81;4975617;28;20318;-72
2021/06/23 07:32:46;;;;;;;;;;;;;;;25.04;87.23;101220.28;4985536;28;20358;-73
2021/06/23 07:37:47;;;;;;;;;;;;;;;25.55;79.41;101211.47;4997823;28;19926;-72
2021/06/23 07:40:16;;;;;;;;;;;;;;;26.12;73.43;101215.75;4999388;28;19930;-72
2021/06/23 07:42:42;;;;;;;;;;;;;;;25.93;72.58;101214.69;4971340;28;20342;-73
2021/06/23 07:45:11;;;;;;;;;;;;;;;25.72;75.22;101223.03;4973784;28;19957;-72
2021/06/23 07:47:39;;;;;;;;;;;;;;;25.21;77.01;101220.78;4990205;28;20020;-71
2021/06/23 07:50:06;;;;;;;;;;;;;;;25.06;76.34;101227.34;4974254;28;20279;-72
2021/06/23 07:52:39;;;;;;;;;;;;;;;25.07;83.57;101236.56;4972557;28;19933;-71
2021/06/23 08:09:09;;;;;;;;;;;;;;;24.07;76.09;101220.22;4971306;28;19930;-71
2021/06/23 08:11:38;;;;;;;;;;;;;;;24.10;80.19;101228.13;4983989;28;19937;-71
2021/06/23 08:14:06;;;;;;;;;;;;;;;23.59;79.24;101226.41;4973408;28;20020;-72
2021/06/23 08:16:33;;;;;;;;;;;;;;;22.79;85.31;101234.63;4982760;28;19926;-73
2021/06/23 08:18:59;;;;;;;;;;;;;;;22.78;91.51;101237.59;4985320;28;19926;-73
2021/06/23 08:21:25;;;;;;;;;;;;;;;22.59;92.38;101236.31;5001946;28;19930;-73
2021/06/23 08:23:52;;;;;;;;;;;;;;;23.08;89.71;101238.41;4991381;28;19961;-73
2021/06/23 08:26:18;;;;;;;;;;;;;;;23.10;86.41;101236.28;4998845;28;19968;-73
2021/06/23 08:28:45;;;;;;;;;;;;;;;23.38;92.69;101230.03;5011345;28;19973;-73
2021/06/23 08:31:13;;;;;;;;;;;;;;;24.35;85.36;101234.03;4979763;28;20033;-72
2021/06/23 08:33:40;;;;;;;;;;;;;;;24.14;80.22;101239.66;4982986;28;19969;-73
2021/06/23 08:36:08;;;;;;;;;;;;;;;23.60;78.54;101227.25;4977345;28;19984;-73
2021/06/23 08:38:35;;;;;;;;;;;;;;;23.21;85.95;101226.63;4972236;28;19930;-73
2021/06/23 08:41:01;;;;;;;;;;;;;;;23.47;86.56;101219.69;4974251;28;19972;-73
2021/06/23 08:43:28;;;;;;;;;;;;;;;23.65;82.83;101222.84;4982909;28;19972;-73
2021/06/23 08:45:54;;;;;;;;;;;;;;;23.34;86.49;101218.50;4971997;28;20346;-72
2021/06/23 08:48:22;;;;;;;;;;;;;;;23.48;86.07;101235.25;5010293;28;19929;-73
2021/06/23 08:50:48;;;;;;;;;;;;;;;22.66;85.60;101242.78;4990077;28;19973;-73
2021/06/23 08:53:14;;;;;;;;;;;;;;;22.89;89.84;101245.44;4981830;28;19929;-73
2021/06/23 08:55:41;;;;;;;;;;;;;;;22.82;85.99;101244.47;4973308;28;19981;-72
2021/06/23 08:58:07;;;;;;;;;;;;;;;23.16;87.04;101246.63;4976247;28;19965;-72
2021/06/23 09:00:34;;;;;;;;;;;;;;;23.13;84.94;101251.66;4991751;28;19925;-73
2021/06/23 09:03:01;;;;;;;;;;;;;;;22.88;82.32;101252.84;4989568;28;19926;-73
2021/06/23 09:05:45;;;;;;;;;;;;;;;22.83;80.24;101248.97;4981603;28;20249;-73
2021/06/23 09:08:11;;;;;;;;;;;;;;;22.02;83.14;101246.91;4989678;28;19926;-72
2021/06/23 09:10:38;;;;;;;;;;;;;;;22.41;89.05;101248.63;4972915;28;19982;-72
2021/06/23 09:13:15;;;;;;;;;;;;;;;22.04;89.24;101250.34;4984817;28;20389;-72
2021/06/23 09:15:42;;;;;;;;;;;;;;;21.85;90.39;101247.06;4986305;28;20340;-72
2021/06/23 09:18:09;;;;;;;;;;;;;;;21.89;98.32;101253.09;4982413;28;20419;-71
2021/06/23 09:20:37;;;;;;;;;;;;;;;22.12;90.72;101244.72;4971940;28;19926;-71
2021/06/23 09:23:03;;;;;;;;;;;;;;;22.14;93.51;101250.94;4989518;28;20373;-72
2021/06/23 09:25:32;;;;;;;;;;;;;;;22.20;92.20;101247.41;4989007;28;19965;-72
2021/06/23 09:27:59;;;;;;;;;;;;;;;22.03;91.50;101254.16;4973109;28;19962;-72
2021/06/23 09:30:27;;;;;;;;;;;;;;;22.56;97.67;101246.69;4991125;28;19930;-72
2021/06/23 09:33:07;;;;;;;;;;;;;;;23.25;92.50;101247.38;4990326;28;19926;-72
2021/06/23 09:35:33;;;;;;;;;;;;;;;23.66;86.07;101259.69;4971714;28;19926;-72
2021/06/23 09:38:01;;;;;;;;;;;;;;;23.85;82.12;101259.03;4978654;28;19929;-72
2021/06/23 09:40:29;;;;;;;;;;;;;;;23.10;81.15;101255.66;4994637;28;19997;-72
2021/06/23 09:43:00;;;;;;;;;;;;;;;22.88;86.68;101266.69;4990731;28;20032;-72
2021/06/23 09:45:27;;;;;;;;;;;;;;;22.56;85.57;101263.28;4979278;28;19930;-72
2021/06/23 09:47:58;;;;;;;;;;;;;;;21.78;87.52;101265.44;4991779;28;20431;-71
2021/06/23 09:50:25;;;;;;;;;;;;;;;21.73;92.14;101263.22;4975182;28;20401;-72
2021/06/23 09:52:53;;;;;;;;;;;;;;;21.49;95.75;101268.91;4975811;28;19973;-72
2021/06/23 09:55:22;;;;;;;;;;;;;;;21.26;93.71;101278.03;4994458;28;20279;-72
2021/06/23 09:58:07;;;;;;;;;;;;;;;21.41;99.35;101283.63;4993761;28;19926;-72
2021/06/23 10:00:34;;;;;;;;;;;;;;;21.23;98.83;101279.25;4978247;28;19934;-72
2021/06/23 10:03:03;;;;;;;;;;;;;;;21.39;100.00;101277.41;4993527;28;19957;-72
2021/06/23 10:05:31;;;;;;;;;;;;;;;21.50;94.61;101289.94;4999152;28;19972;-72
2021/06/23 10:07:57;;;;;;;;;;;;;;;21.99;93.54;101299.78;5005647;28;19926;-72
2021/06/23 10:10:41;;;;;;;;;;;;;;;22.42;89.36;101299.25;4987595;28;19969;-73
2021/06/23 10:13:08;;;;;;;;;;;;;;;22.34;86.73;101278.91;4991355;28;20001;-72
2021/06/23 10:15:35;;;;;;;;;;;;;;;22.51;88.06;101268.53;4977077;28;19926;-72
2021/06/23 10:18:02;;;;;;;;;;;;;;;22.87;89.23;101277.97;4985082;28;20455;-72
2021/06/23 10:20:29;;;;;;;;;;;;;;;23.54;89.37;101282.41;4984405;28;20393;-71
2021/06/23 10:22:56;;;;;;;;;;;;;;;23.67;82.15;101287.22;5008639;28;19926;-72
2021/06/23 10:25:24;;;;;;;;;;;;;;;23.87;80.11;101283.78;4992182;28;19980;-72
2021/06/23 10:27:53;;;;;;;;;;;;;;;24.06;83.83;101280.38;4974114;28;19973;-72
2021/06/23 10:30:21;;;;;;;;;;;;;;;24.07;80.07;101279.28;4974243;28;19930;-73
2021/06/23 10:32:48;;;;;;;;;;;;;;;24.02;80.73;101284.56;4993595;28;19929;-73
2021/06/23 10:35:14;;;;;;;;;;;;;;;24.24;81.10;101290.94;4993564;28;19984;-72
2021/06/23 10:37:42;;;;;;;;;;;;;;;24.38;86.27;101289.09;4992842;28;20385;-73
2021/06/23 10:40:10;;;;;;;;;;;;;;;24.48;86.96;101288.78;4991722;28;19942;-72
2021/06/23 10:42:37;;;;;;;;;;;;;;;24.29;81.21;101290.34;4991581;28;20345;-72
2021/06/23 10:45:06;;;;;;;;;;;;;;;23.87;87.40;101287.41;4983314;28;19933;-73
2021/06/23 10:47:34;;;;;;;;;;;;;;;23.80;91.03;101292.03;4985030;28;20025;-73
2021/06/23 10:50:00;;;;;;;;;;;;;;;23.30;85.73;101289.16;4981634;28;20291;-72
2021/06/23 10:52:37;;;;;;;;;;;;;;;23.33;91.67;101291.56;4973737;28;19941;-72
2021/06/23 10:55:05;;;;;;;;;;;;;;;22.73;88.67;101297.16;4984478;28;20374;-72
2021/06/23 10:57:32;;;;;;;;;;;;;;;22.65;93.89;101300.03;4984435;28;19930;-72
2021/06/23 11:00:00;;;;;;;;;;;;;;;22.56;95.61;101304.78;4973596;28;19930;-72
2021/06/23 11:02:33;;;;;;;;;;;;;;;22.67;93.38;101299.81;4973655;28;20405;-72
2021/06/23 11:05:07;;;;;;;;;;;;;;;22.12;93.51;101300.00;4980587;28;19934;-72
2021/06/23 11:07:37;;;;;;;;;;;;;;;21.94;99.71;101297.59;4973614;28;19926;-73
2021/06/23 11:10:27;;;;;;;;;;;;;;;21.77;100.00;101310.69;4976842;28;19932;-72
2021/06/23 11:12:55;;;;;;;;;;;;;;;21.52;100.00;101310.81;4992799;28;19952;-72
2021/06/23 11:15:22;;;;;;;;;;;;;;;21.11;100.00;101312.97;4986338;28;20021;-72
2021/06/23 11:17:51;;;;;;;;;;;;;;;20.98;100.00;101317.16;4973473;28;19933;-72
2021/06/23 11:20:35;;;;;;;;;;;;;;;20.93;100.00;101321.50;4980697;28;19985;-72
2021/06/23 11:23:01;;;;;;;;;;;;;;;20.83;100.00;101319.81;4977536;28;20326;-72
2021/06/23 11:25:31;;;;;;;;;;;;;;;20.60;100.00;101324.34;4975571;28;19929;-72
2021/06/23 11:28:16;;;;;;;;;;;;;;;20.71;100.00;101326.72;4979131;28;19976;-72
2021/06/23 11:31:02;;;;;;;;;;;;;;;20.64;100.00;101328.47;4979716;28;19948;-72
2021/06/23 11:33:45;;;;;;;;;;;;;;;20.50;100.00;101327.28;4980489;28;19932;-72
2021/06/23 11:36:12;;;;;;;;;;;;;;;20.47;100.00;101327.63;4971742;28;19926;-72
2021/06/23 11:38:38;;;;;;;;;;;;;;;20.36;100.00;101320.59;4977424;28;19933;-71
2021/06/23 11:41:06;;;;;;;;;;;;;;;20.21;100.00;101317.69;4972833;28;20075;-71
2021/06/23 11:43:33;;;;;;;;;;;;;;;20.13;100.00;101323.19;4983794;28;19926;-71
2021/06/23 11:45:59;;;;;;;;;;;;;;;20.08;100.00;101315.44;4987073;28;19934;-72
2021/06/23 11:48:25;;;;;;;;;;;;;;;20.12;100.00;101319.56;4973160;28;20037;-73
2021/06/23 11:50:53;;;;;;;;;;;;;;;19.94;100.00;101321.66;4955787;28;19969;-72
2021/06/23 11:53:20;;;;;;;;;;;;;;;19.83;100.00;101320.09;4972607;28;20472;-73
2021/06/23 11:55:48;;;;;;;;;;;;;;;19.84;100.00;101325.44;4977829;28;20390;-72
2021/06/23 11:58:14;;;;;;;;;;;;;;;19.89;100.00;101320.25;4988800;28;19980;-73
2021/06/23 12:00:42;;;;;;;;;;;;;;;20.03;100.00;101337.13;4975034;28;20194;-72
2021/06/23 12:03:09;;;;;;;;;;;;;;;20.14;100.00;101330.44;4976665;28;19961;-72
2021/06/23 12:05:35;;;;;;;;;;;;;;;20.31;100.00;101326.63;4988904;28;19977;-72
2021/06/23 12:08:04;;;;;;;;;;;;;;;20.43;100.00;101337.28;5007383;28;20106;-72
2021/06/23 12:10:31;;;;;;;;;;;;;;;20.57;100.00;101333.81;4996138;28;19966;-72
2021/06/23 12:12:57;;;;;;;;;;;;;;;20.60;100.00;101327.09;4972375;28;19934;-72
2021/06/23 12:15:25;;;;;;;;;;;;;;;20.75;100.00;101325.34;4982756;28;19973;-73
2021/06/23 12:17:54;;;;;;;;;;;;;;;20.94;100.00;101334.25;4991847;28;19937;-72
2021/06/23 12:20:21;;;;;;;;;;;;;;;20.95;100.00;101325.81;4989425;28;19926;-72
2021/06/23 12:22:55;;;;;;;;;;;;;;;20.91;100.00;101335.47;4991017;28;20294;-73
2021/06/23 12:25:24;;;;;;;;;;;;;;;20.85;100.00;101339.78;4983202;28;20370;-73
2021/06/23 12:27:50;;;;;;;;;;;;;;;20.67;100.00;101334.50;4991784;28;19995;-73
2021/06/23 12:30:17;;;;;;;;;;;;;;;20.64;100.00;101336.72;4983426;28;19946;-74
2021/06/23 12:32:43;;;;;;;;;;;;;;;20.50;100.00;101341.94;4970167;28;19977;-74
2021/06/23 12:35:10;;;;;;;;;;;;;;;20.43;100.00;101340.03;4972354;28;20378;-73
2021/06/23 12:37:36;;;;;;;;;;;;;;;20.14;100.00;101331.28;4980658;28;19988;-74
2021/06/23 12:40:03;;;;;;;;;;;;;;;20.00;100.00;101334.72;4981650;28;20394;-74
2021/06/23 12:42:31;;;;;;;;;;;;;;;19.90;100.00;101334.91;4982136;28;19988;-74
2021/06/23 12:44:57;;;;;;;;;;;;;;;19.86;100.00;101323.38;4982552;28;20397;-74
2021/06/23 12:47:24;;;;;;;;;;;;;;;19.53;100.00;101334.31;4981426;28;19980;-74
2021/06/23 12:49:50;;;;;;;;;;;;;;;19.36;100.00;101324.28;4980090;28;19936;-74
2021/06/23 12:52:16;;;;;;;;;;;;;;;19.12;100.00;101334.22;4980794;28;19929;-74
2021/06/23 12:54:43;;;;;;;;;;;;;;;19.08;100.00;101335.56;4982148;28;19933;-75
2021/06/23 12:57:09;;;;;;;;;;;;;;;19.03;100.00;101335.22;4987712;28;20039;-75